Besuchen Sie unsere anderen Wetter Stationen:

Template documentation
and downloads

And another site


METAR-Meldungen aus der Umgebung


Warning: A non-numeric value encountered in /is/htdocs/wp10906056_0YHW7Q9XB7/www/weather28/metar/metarDisplay.php on line 166
   
EHVK - Volkel Rnlafb, Netherlands
Entfernung von der Station bis: SW 18 km
Aktualisierung: 05-08-2021 08:00
Nebel, Bewölkt  
Nebel, Bewölkt  
   Wind: variiert 1.9 km/h
Wind: variiert 1.9 km/h
Temperatur: 16°C
Taupunkt: 15°C
Luftfeuchte: 94%
Luftdruck: 1010 hPa
Bewölkt: Bewölkt
Sichtbarkeit: 8 km
Bewölkung: Teilweise bewölkt 2103.1 m,
Teilweise bewölkt 2255.5 m,
Bewölkt 3048 m
EHVK 050600Z AUTO VRB01KT 8000 BR SCT069 SCT074 OVC100 16/15 Q1010 BLU NOSIG
EDLV - Niederrhein, Germany
Entfernung von der Station bis: SO 25 km
Aktualisierung: 05-08-2021 07:50
Nebel, Teilweise bewölkt  
Nebel, Teilweise bewölkt  
   Wind: variiert 1.9 km/h
Wind: variiert 1.9 km/h
Temperatur: 15°C
Taupunkt: 15°C
Luftfeuchte: 100%
Luftdruck: 1010 hPa
Bewölkt: Teilweise bewölkt
Sichtbarkeit: 5 km
Bewölkung: Teilweise bewölkt
EDLV 050550Z VRB01KT 4600 BR NSC 15/15 Q1010
EHDL - Deelen Rnlafb, Netherlands
Entfernung von der Station bis: N 35 km
Aktualisierung: 05-08-2021 07:55
Bewölkt  
Bewölkt  
   Wind: OSO 1.9 km/h
Wind: OSO 1.9 km/h
Temperatur: 15°C
Taupunkt: 14°C
Luftfeuchte: 94%
Luftdruck: 1010 hPa
Bewölkt: Bewölkt
Sichtbarkeit: More than 10 km
Bewölkung: Stark bewölkt 2560.3 m,
Bewölkt 2865.1 m
EHDL 050555Z AUTO 12001KT 9999 BKN084 OVC094 15/14 Q1010 BLU
EHEH - Eindhoven Rnlafb, Netherlands
Entfernung von der Station bis: SW 48 km
Aktualisierung: 05-08-2021 07:59
Nebel, Bewölkt  
Nebel, Bewölkt  
   Wind: variiert 1.9 km/h
Wind: variiert 1.9 km/h
Temperatur: 15°C
Taupunkt: 14°C
Luftfeuchte: 94%
Luftdruck: 1010 hPa
Bewölkt: Bewölkt
Sichtbarkeit: 5 km
Bewölkung: Stark bewölkt 1493.5 m,
Stark bewölkt 1645.9 m,
Bewölkt 1859.3 m
EHEH 050559Z AUTO VRB01KT 5000 BR BKN049 BKN054 OVC061 15/14 Q1010 WHT NOSIG
EHGR - Gilze-Rijen Rnla, Netherlands
Entfernung von der Station bis: WSW 70 km
Aktualisierung: 05-08-2021 07:55
Nebel, Bewölkt  
Nebel, Bewölkt  
   Wind: Windstille
Wind: Windstille
Temperatur: 15°C
Taupunkt: 14°C
Luftfeuchte: 94%
Luftdruck: 1010 hPa
Bewölkt: Bewölkt
Sichtbarkeit: 4 km
Bewölkung: leicht bewölkt 1645.9 m,
Stark bewölkt 2103.1 m,
Bewölkt 3048 m
EHGR 050555Z AUTO 00000KT 3700 BR FEW054 BKN069 OVC100 15/14 Q1010 GRN
EBBL - Kleine-Brogel(Ba, Belgium
Entfernung von der Station bis: SSW 71 km
Aktualisierung: 05-08-2021 07:55
Nebel, Teilweise bewölkt  
Nebel, Teilweise bewölkt  
   Wind: variiert 1.9 km/h
Wind: variiert 1.9 km/h
Temperatur: 15°C
Taupunkt: 14°C
Luftfeuchte: 94%
Luftdruck: 1010 hPa
Bewölkt: Teilweise bewölkt
Sichtbarkeit: 4 km
Bewölkung: leicht bewölkt 1371.6 m,
Teilweise bewölkt 3657.6 m
EBBL 050555Z VRB01KT 4000 BR FEW045 SCT120 15/14 Q1010 GRN GRN

Script entwickelt von  Saratoga-weather.org Angepasst für das Template von  Weerstation Leuven

Sie finden unser Wetter-Infos auch auf:

netzwerkwettercom

European Weather Network

WeatherCloud

Weather Underground

AWEKAS

Citizen Weather Observer Program (CWOP)

HAMweather, WeatherForYou, PWS Weather

Von uns verwendete Ausrüstung:

Wetterstation
Davis VP2

Wetterprogramm
Weather Display

Davis VP2

Weather Display